Time;durP1;ratioP1;P1;durP2;ratioP2;P2;SDS_P1;SDS_P2;PMS_P1;PMS_P2;Temp;Humidity;BMP_temperature;BMP_pressure;BME280_temperature;BME280_humidity;BME280_pressure;Samples;Min_cycle;Max_cycle;Signal;HPM_P1;HPM_P2
2021/06/19 15:45:56;;;;;;;11.73;4.03;;;47.50;35.30;;;;;;3515989;40;20079;-82
2021/06/19 15:48:25;;;;;;;11.32;3.95;;;48.50;34.40;;;;;;3503174;41;20092;-82
2021/06/19 15:51:10;;;;;;;11.50;4.25;;;49.20;34.10;;;;;;3518100;40;20076;-82
2021/06/19 15:53:42;;;;;;;8.80;3.78;;;49.40;33.80;;;;;;3504375;40;20091;-84
2021/06/19 15:56:12;;;;;;;9.80;4.18;;;49.60;33.60;;;;;;3512648;40;20091;-82
2021/06/19 15:58:40;;;;;;;11.50;3.92;;;49.50;33.60;;;;;;3501172;40;20079;-82
2021/06/19 16:01:09;;;;;;;10.20;4.00;;;49.40;33.50;;;;;;3498473;40;20387;-83
2021/06/19 16:03:39;;;;;;;12.35;3.90;;;49.70;33.50;;;;;;3504712;40;20071;-83
2021/06/19 16:06:07;;;;;;;8.90;3.45;;;49.30;33.40;;;;;;3507747;40;20290;-83
2021/06/19 16:08:36;;;;;;;9.15;3.63;;;49.20;33.30;;;;;;3503089;40;20083;-84
2021/06/19 16:11:06;;;;;;;9.27;3.30;;;49.30;33.40;;;;;;3512677;40;20073;-82
2021/06/19 16:13:36;;;;;;;10.88;4.72;;;49.60;33.20;;;;;;3508944;40;20075;-82
2021/06/19 16:16:04;;;;;;;12.50;3.95;;;49.40;33.40;;;;;;3509495;40;20084;-81
2021/06/19 16:18:33;;;;;;;12.18;5.13;;;49.20;33.30;;;;;;3510901;40;20092;-86
2021/06/19 16:21:01;;;;;;;10.05;3.75;;;48.40;33.70;;;;;;3522274;40;20349;-85
2021/06/19 16:23:29;;;;;;;11.07;3.95;;;47.90;33.90;;;;;;3513861;40;20064;-83
2021/06/19 16:25:57;;;;;;;9.85;4.30;;;46.80;34.70;;;;;;3513793;40;20092;-85
2021/06/19 16:28:25;;;;;;;13.27;4.60;;;45.80;35.30;;;;;;3505440;40;20079;-84
2021/06/19 16:30:56;;;;;;;10.27;3.97;;;45.00;35.90;;;;;;3515097;40;20095;-84
2021/06/19 16:33:24;;;;;;;16.67;4.55;;;44.00;36.70;;;;;;3515259;40;20064;-84
2021/06/19 16:35:54;;;;;;;10.35;4.22;;;43.70;36.80;;;;;;3510293;40;20064;-83
2021/06/19 16:38:22;;;;;;;9.05;3.70;;;43.10;37.00;;;;;;3520136;40;20072;-83
2021/06/19 16:40:51;;;;;;;12.82;4.43;;;42.60;38.00;;;;;;3521177;40;20044;-84
2021/06/19 16:43:19;;;;;;;15.30;4.97;;;43.40;37.90;;;;;;3511156;40;20091;-83
2021/06/19 16:45:49;;;;;;;14.77;4.05;;;44.20;37.10;;;;;;3522501;40;20147;-84
2021/06/19 16:48:17;;;;;;;10.73;4.15;;;44.70;36.20;;;;;;3504516;40;20071;-83
2021/06/19 16:50:47;;;;;;;8.10;3.85;;;44.40;36.40;;;;;;3505503;40;20095;-85
2021/06/19 16:53:18;;;;;;;9.13;4.20;;;43.70;36.80;;;;;;3507022;40;20071;-84
2021/06/19 16:55:46;;;;;;;15.80;3.75;;;43.30;37.30;;;;;;3512314;40;20079;-85
2021/06/19 16:58:15;;;;;;;12.75;4.15;;;43.80;37.20;;;;;;3513468;40;20080;-83
2021/06/19 17:00:45;;;;;;;10.30;3.88;;;44.20;36.90;;;;;;3504679;40;20087;-85
2021/06/19 17:03:13;;;;;;;14.38;3.88;;;44.60;36.40;;;;;;3512997;40;20419;-85
2021/06/19 17:05:40;;;;;;;12.73;4.10;;;45.00;36.10;;;;;;3496706;40;20080;-85
2021/06/19 17:08:11;;;;;;;9.07;3.83;;;45.20;35.90;;;;;;3514504;40;20071;-86
2021/06/19 17:10:40;;;;;;;11.18;3.88;;;44.50;36.00;;;;;;3503884;40;20075;-83
2021/06/19 17:13:11;;;;;;;10.00;3.72;;;43.60;36.70;;;;;;3511816;40;20068;-84
2021/06/19 17:15:38;;;;;;;15.18;4.05;;;42.40;37.60;;;;;;3510970;40;20055;-85
2021/06/19 17:18:06;;;;;;;8.48;3.53;;;41.20;38.70;;;;;;3503668;40;20084;-84
2021/06/19 17:20:33;;;;;;;;;;;40.40;39.70;;;;;;3513504;40;20095;-82
2021/06/19 17:23:01;;;;;;;;;;;39.70;40.00;;;;;;3523513;40;19939;-87
2021/06/19 17:25:29;;;;;;;15.05;3.63;;;39.30;40.60;;;;;;3516595;40;19995;-83
2021/06/19 17:27:59;;;;;;;11.90;4.00;;;38.90;40.90;;;;;;3517505;40;20068;-86
2021/06/19 17:30:33;;;;;;;13.20;3.90;;;38.60;41.30;;;;;;3513412;40;20083;-84
2021/06/19 17:33:00;;;;;;;14.25;4.68;;;38.30;41.70;;;;;;3513078;40;20087;-84
2021/06/19 17:35:29;;;;;;;;;;;38.10;42.00;;;;;;3505305;40;20067;-84
2021/06/19 17:37:58;;;;;;;10.25;4.28;;;38.00;42.20;;;;;;3512757;40;19970;-84
2021/06/19 17:40:33;;;;;;;12.52;4.57;;;37.80;42.30;;;;;;3517367;40;20084;-84
2021/06/19 17:43:04;;;;;;;10.90;4.00;;;37.70;42.50;;;;;;3514212;40;20067;-84
2021/06/19 17:45:32;;;;;;;14.60;4.10;;;37.50;43.10;;;;;;3512730;40;20087;-85
2021/06/19 17:48:01;;;;;;;9.13;3.78;;;37.30;43.10;;;;;;3515578;40;20083;-84
2021/06/19 17:50:31;;;;;;;14.30;3.88;;;37.00;43.40;;;;;;3507234;40;20108;-83
2021/06/19 17:53:03;;;;;;;;;;;36.80;43.70;;;;;;3508421;40;20091;-85
2021/06/19 17:55:31;;;;;;;12.10;3.65;;;36.60;43.60;;;;;;3515714;40;19983;-85
2021/06/19 17:58:02;;;;;;;11.57;3.60;;;36.40;44.00;;;;;;3515544;40;20079;-85
2021/06/19 18:00:33;;;;;;;10.50;4.30;;;36.30;44.10;;;;;;3516329;40;20076;-84
2021/06/19 18:03:08;;;;;;;14.88;4.78;;;36.30;44.30;;;;;;3509881;40;20111;-84
2021/06/19 18:05:36;;;;;;;11.27;3.90;;;36.20;44.30;;;;;;3516729;40;20102;-83
2021/06/19 18:08:05;;;;;;;9.98;4.40;;;36.10;44.50;;;;;;3509576;40;20387;-83
2021/06/19 18:10:33;;;;;;;11.73;4.70;;;36.00;44.60;;;;;;3508985;40;20083;-84
2021/06/19 18:13:04;;;;;;;16.15;4.90;;;36.00;44.60;;;;;;3517004;40;20079;-83
2021/06/19 18:15:31;;;;;;;14.40;4.80;;;36.00;44.80;;;;;;3526353;40;20099;-85
2021/06/19 18:18:00;;;;;;;6.40;3.47;;;36.10;44.80;;;;;;3509255;40;20115;-85
2021/06/19 18:20:28;;;;;;;12.68;3.60;;;36.10;44.70;;;;;;3515860;40;20282;-84
2021/06/19 18:22:57;;;;;;;9.27;4.03;;;36.00;44.80;;;;;;3516653;40;20095;-81
2021/06/19 18:25:29;;;;;;;17.08;4.55;;;35.90;44.60;;;;;;3518345;40;20079;-83
2021/06/19 18:27:59;;;;;;;8.02;3.90;;;35.70;44.80;;;;;;3525882;40;20332;-82
2021/06/19 18:30:29;;;;;;;12.45;4.50;;;35.60;45.00;;;;;;3513038;40;20219;-84
2021/06/19 18:32:58;;;;;;;8.63;4.47;;;35.50;45.30;;;;;;3517731;40;20040;-82
2021/06/19 18:35:26;;;;;;;11.63;4.80;;;35.40;45.30;;;;;;3514189;40;20069;-82
2021/06/19 18:37:56;;;;;;;13.93;4.68;;;35.40;45.50;;;;;;3517795;40;20064;-82
2021/06/19 18:40:24;;;;;;;8.43;4.32;;;35.30;45.60;;;;;;3525358;40;20099;-85
2021/06/19 18:42:52;;;;;;;16.73;4.40;;;35.20;45.60;;;;;;3516147;40;20091;-82
2021/06/19 18:45:20;;;;;;;8.60;4.03;;;35.20;45.70;;;;;;3517353;40;20071;-84
2021/06/19 18:47:49;;;;;;;;;;;35.10;45.50;;;;;;3508864;40;20103;-84
2021/06/19 18:50:18;;;;;;;13.15;4.63;;;35.00;45.70;;;;;;3500451;40;19978;-85
2021/06/19 18:52:46;;;;;;;10.73;4.50;;;34.90;45.90;;;;;;3524718;40;20091;-84
2021/06/19 18:55:15;;;;;;;16.38;5.78;;;34.90;46.20;;;;;;3517093;40;20336;-86
2021/06/19 18:57:47;;;;;;;16.98;5.28;;;34.80;46.10;;;;;;3507245;40;20072;-82
2021/06/19 19:00:18;;;;;;;9.98;4.43;;;34.70;46.00;;;;;;3513909;40;20080;-82
2021/06/19 19:02:51;;;;;;;9.65;4.10;;;34.70;46.10;;;;;;3514991;40;20067;-83
2021/06/19 19:05:21;;;;;;;17.20;4.20;;;34.50;46.40;;;;;;3506642;40;20084;-84
2021/06/19 19:07:50;;;;;;;;;;;34.30;46.80;;;;;;3513071;40;20087;-82
2021/06/19 19:10:20;;;;;;;13.73;5.35;;;34.20;47.10;;;;;;3510714;40;19970;-83
2021/06/19 19:12:52;;;;;;;14.95;5.38;;;34.00;47.20;;;;;;3514276;41;20365;-81
2021/06/19 19:15:23;;;;;;;15.35;4.00;;;33.90;47.50;;;;;;3510204;40;20072;-82
2021/06/19 19:17:55;;;;;;;9.80;4.55;;;33.70;47.50;;;;;;3522817;40;20107;-82
2021/06/19 19:20:24;;;;;;;12.23;4.20;;;33.50;47.80;;;;;;3506992;40;20079;-82
2021/06/19 19:22:54;;;;;;;12.63;4.28;;;33.30;48.00;;;;;;3521506;40;20064;-83
2021/06/19 19:25:23;;;;;;;14.40;5.28;;;33.10;48.50;;;;;;3513286;40;20087;-86
2021/06/19 19:27:50;;;;;;;;;;;33.00;48.80;;;;;;3512684;40;20317;-83
2021/06/19 19:30:18;;;;;;;11.32;4.60;;;32.80;49.20;;;;;;3505958;40;19970;-82
2021/06/19 19:32:47;;;;;;;12.35;4.75;;;32.70;49.50;;;;;;3506964;40;20084;-81
2021/06/19 19:35:23;;;;;;;13.13;4.38;;;32.50;49.60;;;;;;3506564;40;20387;-82
2021/06/19 19:37:51;;;;;;;11.48;4.82;;;32.40;49.80;;;;;;3506640;40;20099;-83
2021/06/19 19:40:20;;;;;;;13.15;6.30;;;32.30;50.50;;;;;;3514541;40;20063;-83
2021/06/19 19:42:48;;;;;;;17.27;5.85;;;32.10;50.90;;;;;;3505663;40;20095;-84
2021/06/19 19:45:22;;;;;;;11.43;5.32;;;31.90;51.20;;;;;;3514337;40;20403;-81
2021/06/19 19:47:51;;;;;;;16.98;5.35;;;31.90;51.70;;;;;;3522083;40;20435;-84
2021/06/19 19:50:22;;;;;;;13.90;5.85;;;31.70;52.10;;;;;;3513906;40;20086;-84
2021/06/19 19:52:50;;;;;;;16.08;6.38;;;31.70;52.60;;;;;;3505251;40;20063;-83
2021/06/19 19:55:18;;;;;;;12.77;6.20;;;31.60;52.90;;;;;;3513131;40;20308;-84
2021/06/19 19:57:48;;;;;;;11.73;5.93;;;31.40;53.20;;;;;;3512946;40;20083;-83
2021/06/19 20:00:18;;;;;;;11.20;6.13;;;31.40;53.60;;;;;;3517829;40;20067;-86
2021/06/19 20:02:46;;;;;;;15.40;7.18;;;31.30;54.00;;;;;;3512178;40;20088;-85
2021/06/19 20:05:15;;;;;;;14.93;7.20;;;31.20;54.30;;;;;;3510683;40;20064;-84
2021/06/19 20:07:45;;;;;;;15.25;8.40;;;31.10;54.90;;;;;;3507210;40;20075;-84
2021/06/19 20:10:16;;;;;;;18.52;9.05;;;31.10;55.90;;;;;;3512456;40;20083;-83
2021/06/19 20:12:46;;;;;;;20.00;10.00;;;31.00;56.60;;;;;;3506014;40;20064;-83
2021/06/19 20:15:15;;;;;;;18.52;9.55;;;30.90;56.60;;;;;;3513907;40;20083;-83
2021/06/19 20:17:46;;;;;;;16.10;8.32;;;31.00;56.40;;;;;;3507407;40;20072;-84
2021/06/19 20:20:15;;;;;;;16.90;7.78;;;31.00;55.60;;;;;;3522981;40;20083;-85
2021/06/19 20:22:50;;;;;;;16.05;8.15;;;30.90;55.80;;;;;;3512515;40;20036;-83
2021/06/19 20:25:20;;;;;;;13.85;8.85;;;30.90;56.70;;;;;;3514339;40;20076;-84
2021/06/19 20:27:48;;;;;;;20.60;9.82;;;30.70;57.90;;;;;;3506645;40;20083;-83
2021/06/19 20:30:17;;;;;;;;;;;30.60;58.60;;;;;;3515667;40;20136;-84
2021/06/19 20:32:46;;;;;;;14.20;8.60;;;30.50;58.80;;;;;;3507897;40;19970;-85
2021/06/19 20:35:16;;;;;;;18.23;12.10;;;30.40;59.00;;;;;;3515293;40;20080;-83
2021/06/19 20:37:45;;;;;;;18.45;9.38;;;30.30;59.30;;;;;;3513958;40;20289;-83
2021/06/19 20:40:17;;;;;;;18.30;8.88;;;30.20;59.60;;;;;;3504917;40;20307;-83
2021/06/19 20:42:46;;;;;;;19.15;9.90;;;30.20;59.70;;;;;;3512672;40;20039;-84
2021/06/19 20:45:15;;;;;;;18.73;10.57;;;30.10;60.00;;;;;;3521654;40;20096;-84
2021/06/19 20:47:45;;;;;;;23.38;8.35;;;30.10;60.40;;;;;;3512563;40;20096;-85
2021/06/19 20:50:15;;;;;;;12.98;6.25;;;30.10;60.20;;;;;;3513829;40;20112;-83
2021/06/19 20:52:48;;;;;;;14.85;6.55;;;30.30;60.10;;;;;;3513666;40;20091;-84
2021/06/19 20:55:21;;;;;;;14.82;6.05;;;30.20;60.70;;;;;;3513358;40;20080;-86
2021/06/19 20:57:52;;;;;;;26.27;7.05;;;30.30;60.90;;;;;;3505376;40;20147;-84
2021/06/19 21:00:25;;;;;;;21.65;10.20;;;30.20;61.20;;;;;;3513828;40;20088;-84
2021/06/19 21:02:55;;;;;;;17.85;6.75;;;30.00;61.70;;;;;;3513293;40;20079;-84
2021/06/19 21:05:23;;;;;;;9.35;5.82;;;29.90;62.70;;;;;;3505041;40;20421;-83
2021/06/19 21:07:51;;;;;;;19.50;7.45;;;29.70;63.30;;;;;;3504955;40;20081;-83
2021/06/19 21:10:20;;;;;;;12.40;6.53;;;29.70;63.70;;;;;;3503960;40;20684;-83
2021/06/19 21:12:48;;;;;;;16.60;6.63;;;29.60;64.40;;;;;;3502683;40;20084;-83
2021/06/19 21:15:17;;;;;;;18.42;6.05;;;29.60;65.00;;;;;;3516016;40;20289;-83
2021/06/19 21:17:47;;;;;;;14.23;6.22;;;29.50;65.40;;;;;;3506706;40;20092;-85
2021/06/19 21:20:19;;;;;;;11.13;5.50;;;29.40;65.80;;;;;;3513368;40;20069;-84
2021/06/19 21:22:51;;;;;;;14.90;6.57;;;29.40;66.30;;;;;;3505484;41;20080;-86
2021/06/19 21:25:23;;;;;;;15.82;7.15;;;29.30;66.60;;;;;;3498846;41;20064;-84
2021/06/19 21:27:51;;;;;;;15.65;6.95;;;29.30;67.00;;;;;;3507751;40;20063;-85
2021/06/19 21:30:19;;;;;;;17.13;7.65;;;29.20;67.20;;;;;;3499712;40;20088;-84
